Time;durP1;ratioP1;P1;durP2;ratioP2;P2;SDS_P1;SDS_P2;PMS_P1;PMS_P2;Temp;Humidity;BMP_temperature;BMP_pressure;BME280_temperature;BME280_humidity;BME280_pressure;Samples;Min_cycle;Max_cycle;Signal;HPM_P1;HPM_P2
2021/06/04 00:00:47;;;;;;;11.43;7.80;;;;;;;12.39;59.28;100377.42;515876;1098;116540;-57
2021/06/04 00:10:56;;;;;;;11.17;7.50;;;;;;;12.19;60.47;100375.02;515961;1092;117572;-60
2021/06/04 00:21:01;;;;;;;;;;;;;;;11.99;61.24;100372.66;514881;1098;116933;-60
2021/06/04 00:31:06;;;;;;;11.37;7.03;;;;;;;11.88;61.11;100379.38;515270;1093;103778;-62
2021/06/04 00:41:17;;;;;;;10.93;6.13;;;;;;;11.86;61.03;100373.36;526094;1098;117088;-61
2021/06/04 00:51:29;;;;;;;9.50;7.90;;;;;;;11.95;60.97;100376.41;531009;1098;116587;-62
2021/06/04 01:01:36;;;;;;;12.27;7.33;;;;;;;12.01;60.72;100374.28;532010;1098;117688;-61
2021/06/04 01:12:00;;;;;;;7.10;5.27;;;;;;;12.12;60.68;100370.20;531348;1098;116977;-62
2021/06/04 01:22:09;;;;;;;15.83;7.57;;;;;;;12.18;60.72;100362.80;529025;1093;116480;-61
2021/06/04 01:32:19;;;;;;;12.33;6.57;;;;;;;12.23;60.23;100362.53;525144;1093;116708;-61
2021/06/04 01:42:30;;;;;;;12.95;7.13;;;;;;;12.02;60.85;100354.11;531323;1098;116805;-61
2021/06/04 01:52:39;;;;;;;8.23;6.47;;;;;;;11.78;61.55;100347.50;526001;1098;116572;-61
2021/06/04 02:02:45;;;;;;;7.75;7.00;;;;;;;11.48;62.34;100348.31;519608;1098;117021;-61
2021/06/04 02:12:51;;;;;;;7.23;6.07;;;;;;;11.24;62.62;100349.64;532182;1098;117059;-63
2021/06/04 02:23:07;;;;;;;11.83;6.53;;;;;;;11.05;63.22;100359.38;532167;1098;116872;-62
2021/06/04 02:33:18;;;;;;;17.80;9.40;;;;;;;10.92;63.24;100367.09;529594;1098;117049;-61
2021/06/04 02:43:26;;;;;;;9.90;6.73;;;;;;;10.86;63.87;100358.69;515971;1098;116668;-61
2021/06/04 02:53:37;;;;;;;10.50;7.38;;;;;;;11.25;63.83;100356.59;531773;1098;117152;-63
2021/06/04 03:03:47;;;;;;;12.83;7.57;;;;;;;13.42;63.36;100358.88;532093;1098;116772;-62
2021/06/04 03:13:52;;;;;;;11.83;7.50;;;;;;;16.87;57.61;100339.98;532199;1098;117874;-62
2021/06/04 03:23:58;;;;;;;8.60;6.50;;;;;;;16.89;54.31;100345.14;531374;1098;117381;-62
2021/06/04 03:34:04;;;;;;;11.77;7.33;;;;;;;16.07;54.00;100349.61;532159;1098;116862;-62
2021/06/04 03:44:15;;;;;;;16.57;7.30;;;;;;;15.50;54.18;100351.97;532113;1098;116617;-62
2021/06/04 03:54:22;;;;;;;19.83;8.03;;;;;;;16.48;55.41;100352.71;531346;1098;116394;-62
2021/06/04 04:04:29;;;;;;;18.60;6.80;;;;;;;25.29;47.34;100343.43;530790;1098;117794;-61
2021/06/04 04:14:34;;;;;;;15.37;7.03;;;;;;;31.40;38.06;100331.86;532061;1098;116791;-61
2021/06/04 04:24:40;;;;;;;7.10;5.43;;;;;;;35.15;31.27;100334.23;517731;1093;116819;-62
2021/06/04 04:34:45;;;;;;;5.27;4.33;;;;;;;37.70;25.77;100338.45;523929;1098;116207;-63
2021/06/04 04:44:51;;;;;;;6.65;5.38;;;;;;;39.92;22.29;100337.58;525958;1097;116029;-63
2021/06/04 04:54:57;;;;;;;4.53;4.15;;;;;;;42.54;19.30;100340.77;520350;1098;115889;-63
2021/06/04 05:05:03;;;;;;;6.25;3.80;;;;;;;44.09;17.03;100348.55;530808;1092;116538;-62
2021/06/04 05:15:14;;;;;;;7.63;4.10;;;;;;;46.18;15.34;100345.36;521020;1098;116083;-63
2021/06/04 05:25:22;;;;;;;8.68;4.23;;;;;;;48.33;13.88;100342.48;532083;1098;116497;-63
2021/06/04 05:35:29;;;;;;;5.00;3.80;;;;;;;49.43;12.12;100338.98;527644;1098;116549;-62
2021/06/04 05:45:39;;;;;;;3.93;3.57;;;;;;;51.73;11.03;100356.67;531415;1098;117933;-64
2021/06/04 05:55:45;;;;;;;14.90;4.05;;;;;;;52.26;10.17;100353.53;532143;1097;116175;-64
2021/06/04 06:05:50;;;;;;;4.13;3.75;;;;;;;53.79;8.80;100353.72;531312;1098;117368;-64
2021/06/04 06:15:56;;;;;;;5.88;4.50;;;;;;;54.08;8.12;100359.81;532106;1098;116943;-63
2021/06/04 06:26:04;;;;;;;5.08;4.00;;;;;;;56.28;7.99;100370.92;532005;1098;116696;-60
2021/06/04 06:36:12;;;;;;;5.33;5.03;;;;;;;56.13;6.94;100370.86;531239;1098;118351;-61
2021/06/04 06:46:19;;;;;;;7.75;7.25;;;;;;;57.16;6.60;100375.72;532006;1098;116276;-61
2021/06/04 06:56:24;;;;;;;9.25;8.75;;;;;;;56.51;6.12;100376.31;532101;1098;116899;-60
2021/06/04 07:06:34;;;;;;;11.63;10.90;;;;;;;56.81;5.70;100385.70;531370;1098;116004;-59
2021/06/04 07:16:40;;;;;;;13.03;12.53;;;;;;;56.92;5.89;100389.35;532001;1098;116611;-59
2021/06/04 07:26:47;;;;;;;13.83;13.23;;;;;;;56.64;5.16;100381.59;531312;1098;116901;-61
2021/06/04 07:36:54;;;;;;;11.60;11.18;;;;;;;55.91;5.00;100377.53;532076;1098;116338;-61
2021/06/04 07:46:59;;;;;;;3.73;3.40;;;;;;;54.36;5.22;100378.23;532135;1098;117018;-60
2021/06/04 07:57:06;;;;;;;4.83;2.10;;;;;;;41.98;8.67;100367.84;531382;1098;115885;-60
2021/06/04 08:07:11;;;;;;;21.45;4.65;;;;;;;37.18;11.79;100365.37;531992;1098;116157;-59
2021/06/04 08:17:16;;;;;;;4.20;1.65;;;;;;;34.86;13.21;100366.91;532041;1098;116326;-60
2021/06/04 08:27:21;;;;;;;2.27;1.93;;;;;;;33.36;13.78;100366.08;531354;1098;116245;-61
2021/06/04 08:37:25;;;;;;;;;;;;;;;32.26;15.36;100359.38;532092;1098;117488;-62
2021/06/04 08:47:34;;;;;;;3.47;1.90;;;;;;;31.70;15.91;100363.80;532351;1097;103450;-61
2021/06/04 08:57:53;;;;;;;2.40;2.20;;;;;;;30.81;16.73;100364.45;532008;1098;115986;-58
2021/06/04 09:07:58;;;;;;;1.93;1.77;;;;;;;29.53;17.34;100372.59;523832;1098;115692;-61
2021/06/04 09:18:09;;;;;;;2.83;1.90;;;;;;;29.15;18.26;100361.23;531306;1098;115949;-59
2021/06/04 09:28:30;;;;;;;4.85;2.30;;;;;;;28.16;19.38;100349.61;530521;1098;116262;-60
2021/06/04 09:38:42;;;;;;;4.67;2.33;;;;;;;27.45;19.80;100345.86;529829;1098;116533;-58
2021/06/04 09:48:56;;;;;;;3.30;2.67;;;;;;;27.80;20.10;100354.93;530071;1093;116806;-58
2021/06/04 09:59:05;;;;;;;2.70;1.93;;;;;;;27.19;20.32;100342.67;528968;1098;116174;-58
2021/06/04 10:09:27;;;;;;;2.67;1.97;;;;;;;27.09;20.35;100345.68;529266;1098;117193;-58
2021/06/04 10:19:37;;;;;;;6.33;2.63;;;;;;;27.00;20.75;100341.42;529786;1098;116570;-59
2021/06/04 10:29:55;;;;;;;6.83;1.90;;;;;;;26.77;21.47;100325.33;525301;1098;116665;-58
2021/06/04 10:40:11;;;;;;;3.30;2.13;;;;;;;26.40;21.44;100328.78;532132;1098;116522;-59
2021/06/04 10:50:22;;;;;;;3.57;2.23;;;;;;;26.46;21.35;100323.69;532077;1098;117135;-59
2021/06/04 11:00:32;;;;;;;2.00;1.77;;;;;;;26.47;21.12;100307.33;531287;1098;117082;-59
2021/06/04 11:10:48;;;;;;;4.90;2.80;;;;;;;26.52;21.11;100302.25;529596;1093;115764;-62
2021/06/04 11:20:56;;;;;;;4.83;2.33;;;;;;;26.28;21.68;100288.05;521408;1098;116539;-59
2021/06/04 11:31:02;;;;;;;;;;;;;;;25.88;21.61;100288.23;522114;1098;116032;-59
2021/06/04 11:41:18;;;;;;;4.37;2.60;;;;;;;25.99;21.96;100264.60;519284;1098;103516;-61
2021/06/04 11:51:36;;;;;;;4.93;1.93;;;;;;;26.14;22.23;100253.83;531302;1098;116743;-60
2021/06/04 12:01:47;;;;;;;2.77;2.57;;;;;;;25.96;22.72;100260.42;532012;1098;116069;-64
2021/06/04 12:11:52;;;;;;;2.50;2.30;;;;;;;25.75;23.28;100253.06;531300;1098;116558;-63
2021/06/04 12:22:30;;;;;;;2.47;2.23;;;;;;;25.36;24.06;100238.73;531998;1098;116750;-61
2021/06/04 12:33:01;;;;;;;3.80;2.83;;;;;;;25.24;23.85;100218.67;512907;1098;10001947;-56
2021/06/04 12:43:14;;;;;;;6.90;3.20;;;;;;;24.97;24.43;100223.54;531931;1098;116094;-62
2021/06/04 12:53:25;;;;;;;5.40;2.37;;;;;;;25.26;24.18;100227.39;524606;1098;116195;-62
2021/06/04 13:03:33;;;;;;;4.37;2.53;;;;;;;26.04;24.04;100221.01;531214;1098;116122;-63
2021/06/04 13:13:42;;;;;;;2.70;2.03;;;;;;;26.63;23.65;100224.70;531989;1098;116667;-63
2021/06/04 13:24:03;;;;;;;3.23;2.17;;;;;;;27.12;23.41;100207.84;524136;1098;116233;-63
2021/06/04 13:34:15;;;;;;;6.90;2.33;;;;;;;27.05;23.20;100216.89;515827;1093;116277;-64
2021/06/04 13:44:23;;;;;;;2.77;2.57;;;;;;;26.28;23.07;100219.91;515155;1098;117396;-63
2021/06/04 13:54:29;;;;;;;5.67;2.03;;;;;;;25.81;23.76;100205.78;525729;1098;116390;-59
2021/06/04 14:05:28;;;;;;;3.03;1.87;;;;;;;25.74;23.44;100197.58;523496;1091;64383;-61
2021/06/04 14:15:45;;;;;;;2.53;2.10;;;;;;;25.87;24.47;100199.64;514998;1092;116271;-60
2021/06/04 14:25:51;;;;;;;2.08;1.98;;;;;;;25.66;24.04;100187.75;513000;1091;117427;-64
2021/06/04 14:36:09;;;;;;;2.97;2.77;;;;;;;25.82;24.60;100175.98;512843;1091;116319;-65
2021/06/04 14:46:24;;;;;;;12.23;2.40;;;;;;;25.94;24.56;100178.22;513437;1092;116606;-64
2021/06/04 14:56:30;;;;;;;2.83;1.57;;;;;;;26.26;24.27;100168.97;513164;1093;116671;-65
2021/06/04 15:06:35;;;;;;;4.38;1.90;;;;;;;26.32;23.73;100145.85;514042;1092;117029;-64
2021/06/04 15:16:41;;;;;;;1.83;1.73;;;;;;;26.27;23.08;100151.80;513134;1091;116327;-64
2021/06/04 15:26:47;;;;;;;12.03;2.63;;;;;;;26.22;23.60;100143.44;512906;1093;117343;-66
2021/06/04 15:36:53;;;;;;;3.95;1.90;;;;;;;26.45;24.02;100118.23;513347;1092;116502;-65
2021/06/04 15:46:58;;;;;;;3.17;1.60;;;;;;;26.61;23.68;100110.93;513264;1093;116482;-64
2021/06/04 15:57:05;;;;;;;3.15;1.90;;;;;;;26.73;22.95;100106.73;511633;1093;116918;-64
2021/06/04 16:07:10;;;;;;;2.00;1.90;;;;;;;26.58;22.86;100102.22;513271;1092;117221;-62
2021/06/04 16:17:15;;;;;;;3.63;1.90;;;;;;;26.02;23.39;100092.86;513413;1092;117578;-60
2021/06/04 16:27:20;;;;;;;3.70;1.57;;;;;;;25.41;24.58;100091.19;523226;1093;116433;-60
2021/06/04 16:37:25;;;;;;;4.30;1.90;;;;;;;24.70;24.58;100094.98;528134;1092;117475;-60
2021/06/04 16:47:30;;;;;;;2.87;2.60;;;;;;;24.37;26.28;100089.83;511950;1093;116297;-60
2021/06/04 16:57:36;;;;;;;2.60;1.80;;;;;;;24.14;26.74;100087.94;524403;1092;116748;-59
2021/06/04 17:07:41;;;;;;;3.57;2.77;;;;;;;23.99;26.90;100076.22;525531;1093;116541;-61
2021/06/04 17:17:46;;;;;;;10.03;3.37;;;;;;;23.79;27.24;100090.88;527067;1092;116648;-59
2021/06/04 17:27:52;;;;;;;8.70;3.10;;;;;;;23.73;27.59;100083.55;524933;1092;116953;-61
2021/06/04 17:37:57;;;;;;;9.00;2.83;;;;;;;23.59;28.72;100090.45;527907;1093;116253;-60
2021/06/04 17:48:05;;;;;;;30.43;5.83;;;;;;;23.17;30.49;100081.63;529090;1092;115760;-60
2021/06/04 17:58:10;;;;;;;23.28;6.00;;;;;;;22.74;31.89;100081.81;529814;1092;117545;-61
2021/06/04 18:08:17;;;;;;;52.90;8.10;;;;;;;22.41;33.41;100076.38;526061;1092;116666;-60
2021/06/04 18:18:22;;;;;;;9.43;3.10;;;;;;;22.04;34.56;100061.54;517536;1093;117142;-58
2021/06/04 18:28:28;;;;;;;27.43;6.07;;;;;;;21.56;36.60;100065.50;529864;1092;116914;-60
2021/06/04 18:38:33;;;;;;;17.47;7.47;;;;;;;21.22;39.32;100065.44;529545;1092;115815;-60
2021/06/04 18:48:41;;;;;;;17.50;9.57;;;;;;;20.83;41.01;100059.48;518158;1093;116687;-60
2021/06/04 18:58:46;;;;;;;30.00;12.70;;;;;;;20.51;42.93;100063.50;522719;1092;116941;-61
2021/06/04 19:08:53;;;;;;;26.90;11.40;;;;;;;20.19;44.20;100086.16;514131;1093;116894;-60
2021/06/04 19:18:59;;;;;;;32.23;12.17;;;;;;;19.77;45.14;100089.29;512554;1093;116617;-60
2021/06/04 19:29:05;;;;;;;20.30;9.57;;;;;;;19.37;45.73;100092.05;512147;1092;10001318;-60
2021/06/04 19:39:15;;;;;;;25.43;9.50;;;;;;;19.15;45.34;100080.73;526222;1092;116743;-59
2021/06/04 19:49:21;;;;;;;20.90;9.63;;;;;;;19.07;46.69;100071.80;513028;1093;116040;-59
2021/06/04 19:59:28;;;;;;;15.40;8.60;;;;;;;18.98;47.80;100070.80;529779;1092;116070;-60
2021/06/04 20:09:33;;;;;;;11.73;6.80;;;;;;;18.96;45.61;100078.09;525805;1093;116507;-60
2021/06/04 20:19:38;;;;;;;29.80;10.03;;;;;;;18.95;46.92;100074.58;529320;1093;119461;-60
2021/06/04 20:29:43;;;;;;;16.43;9.70;;;;;;;18.76;48.64;100068.30;511448;1093;117194;-59
2021/06/04 20:39:49;;;;;;;13.83;10.60;;;;;;;18.60;49.47;100055.55;511890;1092;116881;-61
2021/06/04 20:49:55;;;;;;;15.10;7.20;;;;;;;18.47;48.71;100053.16;521355;1094;116695;-61
2021/06/04 21:00:01;;;;;;;17.53;11.83;;;;;;;18.43;50.29;100056.22;512201;1092;116678;-60
2021/06/04 21:10:10;;;;;;;15.60;8.80;;;;;;;18.30;50.99;100046.70;525184;1092;116849;-60
2021/06/04 21:20:17;;;;;;;13.57;8.47;;;;;;;18.20;50.85;100032.55;520121;1092;116338;-59
2021/06/04 21:30:24;;;;;;;11.13;8.03;;;;;;;18.09;51.78;100027.34;516495;1092;116582;-59
2021/06/04 21:40:36;;;;;;;15.70;9.97;;;;;;;18.03;51.82;100028.73;515335;1093;10001179;-60
2021/06/04 21:50:41;;;;;;;17.83;10.73;;;;;;;17.99;51.80;100032.62;527043;1092;116675;-59
2021/06/04 22:00:49;;;;;;;13.23;9.10;;;;;;;17.76;51.97;100056.73;520924;1092;10001791;-59
2021/06/04 22:10:57;;;;;;;14.53;10.13;;;;;;;17.55;51.73;100067.41;515492;1092;116592;-59
2021/06/04 22:21:03;;;;;;;10.58;8.30;;;;;;;17.36;51.37;100061.01;512537;1093;116919;-59
2021/06/04 22:31:11;;;;;;;12.60;9.00;;;;;;;17.27;51.57;100061.78;525151;1092;116609;-60
2021/06/04 22:41:18;;;;;;;11.13;8.25;;;;;;;17.16;52.07;100068.84;518936;1092;117331;-59
2021/06/04 22:51:25;;;;;;;11.45;7.35;;;;;;;17.03;52.34;100055.79;513158;1093;116626;-61
2021/06/04 23:01:32;;;;;;;11.63;7.70;;;;;;;16.91;52.84;100047.00;525852;1092;171051;-60
2021/06/04 23:11:38;;;;;;;10.53;7.60;;;;;;;16.87;52.91;100036.77;522176;1092;116390;-58
2021/06/04 23:21:43;;;;;;;8.33;6.70;;;;;;;16.88;53.17;100031.36;529828;1092;116757;-60
2021/06/04 23:31:48;;;;;;;9.93;7.57;;;;;;;16.83;54.52;100028.23;517060;1091;116076;-61
2021/06/04 23:41:56;;;;;;;8.27;7.13;;;;;;;16.72;54.42;100007.93;521216;1092;117174;-60
2021/06/04 23:52:02;;;;;;;11.90;8.53;;;;;;;16.67;55.21;100005.66;515679;1092;115886;-61
